sensor_id;sensor_type;location;lat;lon;timestamp;temperature;humidity
24814;DHT22;12904;50.088;11.414;2023-07-28T00:02:04;16.40;99.90
24814;DHT22;12904;50.088;11.414;2023-07-28T00:04:30;16.40;99.90
24814;DHT22;12904;50.088;11.414;2023-07-28T00:06:55;16.40;99.90
24814;DHT22;12904;50.088;11.414;2023-07-28T00:09:21;16.40;99.90
24814;DHT22;12904;50.088;11.414;2023-07-28T00:11:48;16.40;99.90
24814;DHT22;12904;50.088;11.414;2023-07-28T00:14:14;16.40;99.90
24814;DHT22;12904;50.088;11.414;2023-07-28T00:16:40;16.40;99.90
24814;DHT22;12904;50.088;11.414;2023-07-28T00:19:05;16.40;99.90
24814;DHT22;12904;50.088;11.414;2023-07-28T00:21:31;16.40;99.90
24814;DHT22;12904;50.088;11.414;2023-07-28T00:23:57;16.40;99.90
24814;DHT22;12904;50.088;11.414;2023-07-28T00:26:22;16.40;99.90
24814;DHT22;12904;50.088;11.414;2023-07-28T00:28:48;16.40;99.90
24814;DHT22;12904;50.088;11.414;2023-07-28T00:31:14;16.40;99.90
24814;DHT22;12904;50.088;11.414;2023-07-28T00:33:39;16.40;99.90
24814;DHT22;12904;50.088;11.414;2023-07-28T00:36:05;16.40;99.90
24814;DHT22;12904;50.088;11.414;2023-07-28T00:38:31;16.40;99.90
24814;DHT22;12904;50.088;11.414;2023-07-28T00:40:57;16.40;99.90
24814;DHT22;12904;50.088;11.414;2023-07-28T00:43:23;16.40;99.90
24814;DHT22;12904;50.088;11.414;2023-07-28T00:45:48;16.40;99.90
24814;DHT22;12904;50.088;11.414;2023-07-28T00:48:15;16.40;99.90
24814;DHT22;12904;50.088;11.414;2023-07-28T00:50:44;16.50;99.90
24814;DHT22;12904;50.088;11.414;2023-07-28T00:53:10;16.50;99.90
24814;DHT22;12904;50.088;11.414;2023-07-28T00:55:37;16.50;99.90
24814;DHT22;12904;50.088;11.414;2023-07-28T00:58:03;16.50;99.90
24814;DHT22;12904;50.088;11.414;2023-07-28T01:00:28;16.40;99.90
24814;DHT22;12904;50.088;11.414;2023-07-28T01:02:54;16.40;99.90
24814;DHT22;12904;50.088;11.414;2023-07-28T01:05:24;16.50;99.90
24814;DHT22;12904;50.088;11.414;2023-07-28T01:08:11;16.50;99.90
24814;DHT22;12904;50.088;11.414;2023-07-28T01:10:39;16.50;99.90
24814;DHT22;12904;50.088;11.414;2023-07-28T01:13:05;16.50;99.90
24814;DHT22;12904;50.088;11.414;2023-07-28T01:15:30;16.50;99.90
24814;DHT22;12904;50.088;11.414;2023-07-28T01:17:56;16.50;99.90
24814;DHT22;12904;50.088;11.414;2023-07-28T01:20:24;16.50;99.90
24814;DHT22;12904;50.088;11.414;2023-07-28T01:23:13;16.40;99.90
24814;DHT22;12904;50.088;11.414;2023-07-28T01:26:03;16.50;99.90
24814;DHT22;12904;50.088;11.414;2023-07-28T01:28:33;16.50;99.90
24814;DHT22;12904;50.088;11.414;2023-07-28T01:31:02;16.50;99.90
24814;DHT22;12904;50.088;11.414;2023-07-28T01:33:27;16.50;99.90
24814;DHT22;12904;50.088;11.414;2023-07-28T01:35:53;16.50;99.90
24814;DHT22;12904;50.088;11.414;2023-07-28T01:38:21;16.50;99.90
24814;DHT22;12904;50.088;11.414;2023-07-28T01:40:48;16.50;99.90
24814;DHT22;12904;50.088;11.414;2023-07-28T01:43:14;16.50;99.90
24814;DHT22;12904;50.088;11.414;2023-07-28T01:45:40;16.50;99.90
24814;DHT22;12904;50.088;11.414;2023-07-28T01:48:06;16.50;99.90
24814;DHT22;12904;50.088;11.414;2023-07-28T01:50:33;16.50;99.90
24814;DHT22;12904;50.088;11.414;2023-07-28T01:52:59;16.50;99.90
24814;DHT22;12904;50.088;11.414;2023-07-28T01:55:25;16.50;99.90
24814;DHT22;12904;50.088;11.414;2023-07-28T01:57:59;16.50;99.90
24814;DHT22;12904;50.088;11.414;2023-07-28T02:00:25;16.50;99.90
24814;DHT22;12904;50.088;11.414;2023-07-28T02:02:52;16.50;99.90
24814;DHT22;12904;50.088;11.414;2023-07-28T02:05:18;16.40;99.90
24814;DHT22;12904;50.088;11.414;2023-07-28T02:07:43;16.40;99.90
24814;DHT22;12904;50.088;11.414;2023-07-28T02:10:09;16.40;99.90
24814;DHT22;12904;50.088;11.414;2023-07-28T02:12:38;16.40;99.90
24814;DHT22;12904;50.088;11.414;2023-07-28T02:15:06;16.40;99.90
24814;DHT22;12904;50.088;11.414;2023-07-28T02:17:32;16.40;99.90
24814;DHT22;12904;50.088;11.414;2023-07-28T02:19:58;16.40;99.90
24814;DHT22;12904;50.088;11.414;2023-07-28T02:22:24;16.40;99.90
24814;DHT22;12904;50.088;11.414;2023-07-28T02:24:49;16.40;99.90
24814;DHT22;12904;50.088;11.414;2023-07-28T02:27:15;16.40;99.90
24814;DHT22;12904;50.088;11.414;2023-07-28T02:29:40;16.40;99.90
24814;DHT22;12904;50.088;11.414;2023-07-28T02:32:07;16.40;99.90
24814;DHT22;12904;50.088;11.414;2023-07-28T02:34:33;16.50;99.90
24814;DHT22;12904;50.088;11.414;2023-07-28T02:36:59;16.50;99.90
24814;DHT22;12904;50.088;11.414;2023-07-28T02:39:24;16.50;99.90
24814;DHT22;12904;50.088;11.414;2023-07-28T02:41:50;16.50;99.90
24814;DHT22;12904;50.088;11.414;2023-07-28T02:44:15;16.50;99.90
24814;DHT22;12904;50.088;11.414;2023-07-28T02:46:41;16.50;99.90
24814;DHT22;12904;50.088;11.414;2023-07-28T02:49:07;16.50;99.90
24814;DHT22;12904;50.088;11.414;2023-07-28T02:51:32;16.50;99.90
24814;DHT22;12904;50.088;11.414;2023-07-28T02:54:01;16.50;99.90
24814;DHT22;12904;50.088;11.414;2023-07-28T02:56:27;16.50;99.90
24814;DHT22;12904;50.088;11.414;2023-07-28T02:58:52;16.50;99.90
24814;DHT22;12904;50.088;11.414;2023-07-28T03:01:18;16.50;99.90
24814;DHT22;12904;50.088;11.414;2023-07-28T03:03:44;16.50;99.90
24814;DHT22;12904;50.088;11.414;2023-07-28T03:06:10;16.40;99.90
24814;DHT22;12904;50.088;11.414;2023-07-28T03:08:35;16.40;99.90
24814;DHT22;12904;50.088;11.414;2023-07-28T03:11:01;16.40;99.90
24814;DHT22;12904;50.088;11.414;2023-07-28T03:13:29;16.40;99.90
24814;DHT22;12904;50.088;11.414;2023-07-28T03:15:55;16.40;99.90
24814;DHT22;12904;50.088;11.414;2023-07-28T03:18:20;16.40;99.90
24814;DHT22;12904;50.088;11.414;2023-07-28T03:20:46;16.40;99.90
24814;DHT22;12904;50.088;11.414;2023-07-28T03:23:13;16.40;99.90
24814;DHT22;12904;50.088;11.414;2023-07-28T03:25:38;16.40;99.90
24814;DHT22;12904;50.088;11.414;2023-07-28T03:28:04;16.40;99.90
24814;DHT22;12904;50.088;11.414;2023-07-28T03:30:29;16.40;99.90
24814;DHT22;12904;50.088;11.414;2023-07-28T03:32:55;16.40;99.90
24814;DHT22;12904;50.088;11.414;2023-07-28T03:35:21;16.40;99.90
24814;DHT22;12904;50.088;11.414;2023-07-28T03:37:47;16.40;99.90
24814;DHT22;12904;50.088;11.414;2023-07-28T03:40:12;16.40;99.90
24814;DHT22;12904;50.088;11.414;2023-07-28T03:42:38;16.40;99.90
24814;DHT22;12904;50.088;11.414;2023-07-28T03:45:04;16.40;99.90
24814;DHT22;12904;50.088;11.414;2023-07-28T03:47:30;16.40;99.90
24814;DHT22;12904;50.088;11.414;2023-07-28T03:49:55;16.40;99.90
24814;DHT22;12904;50.088;11.414;2023-07-28T03:52:21;16.40;99.90
24814;DHT22;12904;50.088;11.414;2023-07-28T03:54:47;16.40;99.90
24814;DHT22;12904;50.088;11.414;2023-07-28T03:57:12;16.40;99.90
24814;DHT22;12904;50.088;11.414;2023-07-28T03:59:38;16.40;99.90
24814;DHT22;12904;50.088;11.414;2023-07-28T04:02:04;16.40;99.90
24814;DHT22;12904;50.088;11.414;2023-07-28T04:04:29;16.40;99.90
24814;DHT22;12904;50.088;11.414;2023-07-28T04:06:55;16.40;99.90
24814;DHT22;12904;50.088;11.414;2023-07-28T04:09:20;16.40;99.90
24814;DHT22;12904;50.088;11.414;2023-07-28T04:11:46;16.40;99.90
24814;DHT22;12904;50.088;11.414;2023-07-28T04:14:12;16.50;99.90
24814;DHT22;12904;50.088;11.414;2023-07-28T04:16:38;16.50;99.90
24814;DHT22;12904;50.088;11.414;2023-07-28T04:19:04;16.50;99.90
24814;DHT22;12904;50.088;11.414;2023-07-28T04:21:29;16.50;99.90
24814;DHT22;12904;50.088;11.414;2023-07-28T04:23:55;16.50;99.90
24814;DHT22;12904;50.088;11.414;2023-07-28T04:26:23;16.50;99.90
24814;DHT22;12904;50.088;11.414;2023-07-28T04:28:49;16.50;99.90
24814;DHT22;12904;50.088;11.414;2023-07-28T04:31:14;16.50;99.90
24814;DHT22;12904;50.088;11.414;2023-07-28T04:33:43;16.50;99.90
24814;DHT22;12904;50.088;11.414;2023-07-28T04:36:09;16.50;99.90
24814;DHT22;12904;50.088;11.414;2023-07-28T04:38:35;16.50;99.90
24814;DHT22;12904;50.088;11.414;2023-07-28T04:41:01;16.60;99.90
24814;DHT22;12904;50.088;11.414;2023-07-28T04:43:27;16.60;99.90
24814;DHT22;12904;50.088;11.414;2023-07-28T04:45:53;16.70;99.90
24814;DHT22;12904;50.088;11.414;2023-07-28T04:48:19;16.70;99.90
24814;DHT22;12904;50.088;11.414;2023-07-28T04:50:45;16.70;99.90
24814;DHT22;12904;50.088;11.414;2023-07-28T04:53:11;16.80;99.90
24814;DHT22;12904;50.088;11.414;2023-07-28T04:55:36;16.80;99.90
24814;DHT22;12904;50.088;11.414;2023-07-28T04:58:02;16.80;99.90
24814;DHT22;12904;50.088;11.414;2023-07-28T05:00:28;16.80;99.90
24814;DHT22;12904;50.088;11.414;2023-07-28T05:02:53;16.80;99.90
24814;DHT22;12904;50.088;11.414;2023-07-28T05:05:19;16.80;99.90
24814;DHT22;12904;50.088;11.414;2023-07-28T05:07:45;16.80;99.90
24814;DHT22;12904;50.088;11.414;2023-07-28T05:10:11;16.80;99.90
24814;DHT22;12904;50.088;11.414;2023-07-28T05:12:36;16.80;99.90
24814;DHT22;12904;50.088;11.414;2023-07-28T05:15:02;16.80;99.90
24814;DHT22;12904;50.088;11.414;2023-07-28T05:17:28;16.80;99.90
24814;DHT22;12904;50.088;11.414;2023-07-28T05:19:53;16.90;99.90
24814;DHT22;12904;50.088;11.414;2023-07-28T05:22:19;16.80;99.90
24814;DHT22;12904;50.088;11.414;2023-07-28T05:24:45;16.90;99.90
24814;DHT22;12904;50.088;11.414;2023-07-28T05:27:14;16.90;99.90
24814;DHT22;12904;50.088;11.414;2023-07-28T05:29:40;17.00;99.90
24814;DHT22;12904;50.088;11.414;2023-07-28T05:32:06;17.00;99.90
24814;DHT22;12904;50.088;11.414;2023-07-28T05:34:32;17.00;99.90
24814;DHT22;12904;50.088;11.414;2023-07-28T05:36:57;17.10;99.90
24814;DHT22;12904;50.088;11.414;2023-07-28T05:39:23;17.10;99.90
24814;DHT22;12904;50.088;11.414;2023-07-28T05:41:49;17.10;99.90
24814;DHT22;12904;50.088;11.414;2023-07-28T05:44:14;17.10;99.90
24814;DHT22;12904;50.088;11.414;2023-07-28T05:46:40;17.20;99.90
24814;DHT22;12904;50.088;11.414;2023-07-28T05:49:06;17.20;99.90
24814;DHT22;12904;50.088;11.414;2023-07-28T05:51:31;17.20;99.90
24814;DHT22;12904;50.088;11.414;2023-07-28T05:53:57;17.20;99.90
24814;DHT22;12904;50.088;11.414;2023-07-28T05:56:23;17.20;99.90
24814;DHT22;12904;50.088;11.414;2023-07-28T05:58:49;17.30;99.90
24814;DHT22;12904;50.088;11.414;2023-07-28T06:01:16;17.40;99.90
24814;DHT22;12904;50.088;11.414;2023-07-28T06:03:41;17.40;99.90
24814;DHT22;12904;50.088;11.414;2023-07-28T06:06:07;17.50;99.90
24814;DHT22;12904;50.088;11.414;2023-07-28T06:08:33;17.50;99.90
24814;DHT22;12904;50.088;11.414;2023-07-28T06:10:59;17.60;99.90
24814;DHT22;12904;50.088;11.414;2023-07-28T06:13:25;17.60;99.90
24814;DHT22;12904;50.088;11.414;2023-07-28T06:15:53;17.60;99.90
24814;DHT22;12904;50.088;11.414;2023-07-28T06:18:19;17.60;99.90
24814;DHT22;12904;50.088;11.414;2023-07-28T06:20:47;17.50;99.90
24814;DHT22;12904;50.088;11.414;2023-07-28T06:23:13;17.60;99.90
24814;DHT22;12904;50.088;11.414;2023-07-28T06:25:39;17.50;99.90
24814;DHT22;12904;50.088;11.414;2023-07-28T06:28:12;17.50;99.90
24814;DHT22;12904;50.088;11.414;2023-07-28T06:30:38;17.50;99.90
24814;DHT22;12904;50.088;11.414;2023-07-28T06:33:06;17.50;99.90
24814;DHT22;12904;50.088;11.414;2023-07-28T06:35:32;17.50;99.90
24814;DHT22;12904;50.088;11.414;2023-07-28T06:37:58;17.60;99.90
24814;DHT22;12904;50.088;11.414;2023-07-28T06:40:24;17.60;99.90
24814;DHT22;12904;50.088;11.414;2023-07-28T06:42:50;17.70;99.90
24814;DHT22;12904;50.088;11.414;2023-07-28T06:45:15;17.70;99.90
24814;DHT22;12904;50.088;11.414;2023-07-28T06:47:41;17.80;99.90
24814;DHT22;12904;50.088;11.414;2023-07-28T06:50:07;17.80;99.90
24814;DHT22;12904;50.088;11.414;2023-07-28T06:52:32;17.90;99.90
24814;DHT22;12904;50.088;11.414;2023-07-28T06:54:58;17.90;99.90
24814;DHT22;12904;50.088;11.414;2023-07-28T06:57:24;18.00;99.90
24814;DHT22;12904;50.088;11.414;2023-07-28T06:59:50;18.00;99.90
24814;DHT22;12904;50.088;11.414;2023-07-28T07:02:16;18.00;99.90
24814;DHT22;12904;50.088;11.414;2023-07-28T07:04:42;18.00;99.90
24814;DHT22;12904;50.088;11.414;2023-07-28T07:07:08;18.00;99.90
24814;DHT22;12904;50.088;11.414;2023-07-28T07:09:33;18.00;99.90
24814;DHT22;12904;50.088;11.414;2023-07-28T07:12:00;18.00;99.90
24814;DHT22;12904;50.088;11.414;2023-07-28T07:14:25;18.00;99.90
24814;DHT22;12904;50.088;11.414;2023-07-28T07:16:51;18.00;99.90
24814;DHT22;12904;50.088;11.414;2023-07-28T07:19:17;18.00;99.90
24814;DHT22;12904;50.088;11.414;2023-07-28T07:21:42;18.00;99.90
24814;DHT22;12904;50.088;11.414;2023-07-28T07:24:10;18.10;99.90
24814;DHT22;12904;50.088;11.414;2023-07-28T07:26:39;18.10;99.90
24814;DHT22;12904;50.088;11.414;2023-07-28T07:29:05;18.10;99.90
24814;DHT22;12904;50.088;11.414;2023-07-28T07:31:30;18.10;99.90
24814;DHT22;12904;50.088;11.414;2023-07-28T07:33:56;18.20;99.90
24814;DHT22;12904;50.088;11.414;2023-07-28T07:36:21;18.10;99.90
24814;DHT22;12904;50.088;11.414;2023-07-28T07:38:47;18.20;99.90
24814;DHT22;12904;50.088;11.414;2023-07-28T07:41:15;18.40;99.90
24814;DHT22;12904;50.088;11.414;2023-07-28T07:43:48;18.50;99.90
24814;DHT22;12904;50.088;11.414;2023-07-28T07:46:14;18.60;99.90
24814;DHT22;12904;50.088;11.414;2023-07-28T07:48:40;18.60;99.90
24814;DHT22;12904;50.088;11.414;2023-07-28T07:51:07;18.60;99.90
24814;DHT22;12904;50.088;11.414;2023-07-28T07:53:32;18.60;99.90
24814;DHT22;12904;50.088;11.414;2023-07-28T07:55:58;18.50;99.90
24814;DHT22;12904;50.088;11.414;2023-07-28T07:58:24;18.40;99.90
24814;DHT22;12904;50.088;11.414;2023-07-28T08:00:49;18.30;99.90
24814;DHT22;12904;50.088;11.414;2023-07-28T08:03:15;18.20;99.90
24814;DHT22;12904;50.088;11.414;2023-07-28T08:05:40;18.20;99.90
24814;DHT22;12904;50.088;11.414;2023-07-28T08:08:06;18.20;99.90
24814;DHT22;12904;50.088;11.414;2023-07-28T08:10:33;18.10;99.90
24814;DHT22;12904;50.088;11.414;2023-07-28T08:12:59;18.20;99.90
24814;DHT22;12904;50.088;11.414;2023-07-28T08:15:25;18.20;99.90
24814;DHT22;12904;50.088;11.414;2023-07-28T08:17:51;18.20;99.90
24814;DHT22;12904;50.088;11.414;2023-07-28T08:20:20;18.10;99.90
24814;DHT22;12904;50.088;11.414;2023-07-28T08:22:46;18.00;99.90
24814;DHT22;12904;50.088;11.414;2023-07-28T08:25:11;18.00;99.90
24814;DHT22;12904;50.088;11.414;2023-07-28T08:27:37;18.00;99.90
24814;DHT22;12904;50.088;11.414;2023-07-28T08:30:03;18.00;99.90
24814;DHT22;12904;50.088;11.414;2023-07-28T08:32:29;18.10;99.90
24814;DHT22;12904;50.088;11.414;2023-07-28T08:34:55;18.20;99.90
24814;DHT22;12904;50.088;11.414;2023-07-28T08:37:20;18.20;99.90
24814;DHT22;12904;50.088;11.414;2023-07-28T08:39:46;18.30;99.90
24814;DHT22;12904;50.088;11.414;2023-07-28T08:42:12;18.40;99.90
24814;DHT22;12904;50.088;11.414;2023-07-28T08:44:37;18.40;99.90
24814;DHT22;12904;50.088;11.414;2023-07-28T08:47:04;18.40;99.90
24814;DHT22;12904;50.088;11.414;2023-07-28T08:49:33;18.40;99.90
24814;DHT22;12904;50.088;11.414;2023-07-28T08:52:02;18.60;99.90
24814;DHT22;12904;50.088;11.414;2023-07-28T08:54:29;18.90;99.90
24814;DHT22;12904;50.088;11.414;2023-07-28T08:56:55;19.00;99.90
24814;DHT22;12904;50.088;11.414;2023-07-28T08:59:23;19.10;99.90
24814;DHT22;12904;50.088;11.414;2023-07-28T09:01:52;19.20;99.90
24814;DHT22;12904;50.088;11.414;2023-07-28T09:04:17;19.20;99.90
24814;DHT22;12904;50.088;11.414;2023-07-28T09:06:47;19.00;99.90
24814;DHT22;12904;50.088;11.414;2023-07-28T09:09:18;19.10;99.90
24814;DHT22;12904;50.088;11.414;2023-07-28T09:11:52;19.20;99.90
24814;DHT22;12904;50.088;11.414;2023-07-28T09:14:20;19.30;99.90
24814;DHT22;12904;50.088;11.414;2023-07-28T09:16:47;19.40;99.90
24814;DHT22;12904;50.088;11.414;2023-07-28T09:19:13;19.40;99.90
24814;DHT22;12904;50.088;11.414;2023-07-28T09:21:40;19.50;99.90
24814;DHT22;12904;50.088;11.414;2023-07-28T09:24:13;19.60;99.90
24814;DHT22;12904;50.088;11.414;2023-07-28T09:26:44;19.90;99.90
24814;DHT22;12904;50.088;11.414;2023-07-28T09:29:17;20.10;99.90
24814;DHT22;12904;50.088;11.414;2023-07-28T09:31:43;20.50;99.90
24814;DHT22;12904;50.088;11.414;2023-07-28T09:34:10;20.80;99.90
24814;DHT22;12904;50.088;11.414;2023-07-28T09:36:37;21.10;99.90
24814;DHT22;12904;50.088;11.414;2023-07-28T09:39:05;21.20;99.90
24814;DHT22;12904;50.088;11.414;2023-07-28T09:41:35;21.20;99.90
24814;DHT22;12904;50.088;11.414;2023-07-28T09:44:01;21.20;99.90
24814;DHT22;12904;50.088;11.414;2023-07-28T09:46:28;21.20;99.90
24814;DHT22;12904;50.088;11.414;2023-07-28T09:48:57;21.00;99.90
24814;DHT22;12904;50.088;11.414;2023-07-28T09:51:29;20.80;99.90
24814;DHT22;12904;50.088;11.414;2023-07-28T09:54:05;20.80;99.90
24814;DHT22;12904;50.088;11.414;2023-07-28T09:56:31;20.90;99.90
24814;DHT22;12904;50.088;11.414;2023-07-28T09:58:59;21.10;99.90
24814;DHT22;12904;50.088;11.414;2023-07-28T10:01:26;21.20;99.90
24814;DHT22;12904;50.088;11.414;2023-07-28T10:03:53;21.30;99.90
24814;DHT22;12904;50.088;11.414;2023-07-28T10:06:20;21.20;99.90
24814;DHT22;12904;50.088;11.414;2023-07-28T10:08:48;21.10;99.90
24814;DHT22;12904;50.088;11.414;2023-07-28T10:11:15;20.90;99.90
24814;DHT22;12904;50.088;11.414;2023-07-28T10:13:43;21.00;99.90
24814;DHT22;12904;50.088;11.414;2023-07-28T10:16:09;20.90;99.90
24814;DHT22;12904;50.088;11.414;2023-07-28T10:18:35;21.10;99.90
24814;DHT22;12904;50.088;11.414;2023-07-28T10:21:10;21.20;99.90
24814;DHT22;12904;50.088;11.414;2023-07-28T10:23:39;21.10;99.90
24814;DHT22;12904;50.088;11.414;2023-07-28T10:26:05;21.20;99.90
24814;DHT22;12904;50.088;11.414;2023-07-28T10:28:32;21.20;99.90
24814;DHT22;12904;50.088;11.414;2023-07-28T10:31:02;21.00;99.90
24814;DHT22;12904;50.088;11.414;2023-07-28T10:36:32;21.00;99.90
24814;DHT22;12904;50.088;11.414;2023-07-28T10:38:43;21.00;99.90
24814;DHT22;12904;50.088;11.414;2023-07-28T10:41:12;21.30;99.90
24814;DHT22;12904;50.088;11.414;2023-07-28T10:43:38;21.50;99.90
24814;DHT22;12904;50.088;11.414;2023-07-28T10:46:05;21.50;99.90
24814;DHT22;12904;50.088;11.414;2023-07-28T10:48:35;21.30;99.90
24814;DHT22;12904;50.088;11.414;2023-07-28T10:51:01;21.10;99.90
24814;DHT22;12904;50.088;11.414;2023-07-28T10:53:26;20.90;99.90
24814;DHT22;12904;50.088;11.414;2023-07-28T10:55:52;20.80;99.90
24814;DHT22;12904;50.088;11.414;2023-07-28T10:58:19;20.80;99.90
24814;DHT22;12904;50.088;11.414;2023-07-28T11:00:45;20.90;99.90
24814;DHT22;12904;50.088;11.414;2023-07-28T11:03:12;21.20;99.90
24814;DHT22;12904;50.088;11.414;2023-07-28T11:05:38;21.50;99.90
24814;DHT22;12904;50.088;11.414;2023-07-28T11:08:06;21.80;99.90
24814;DHT22;12904;50.088;11.414;2023-07-28T11:10:33;21.90;99.90
24814;DHT22;12904;50.088;11.414;2023-07-28T11:13:02;22.00;99.90
24814;DHT22;12904;50.088;11.414;2023-07-28T11:15:28;22.10;99.90
24814;DHT22;12904;50.088;11.414;2023-07-28T11:17:54;22.00;99.90
24814;DHT22;12904;50.088;11.414;2023-07-28T11:20:22;21.90;99.90
24814;DHT22;12904;50.088;11.414;2023-07-28T11:23:02;21.80;99.90
24814;DHT22;12904;50.088;11.414;2023-07-28T11:25:33;21.60;99.90
24814;DHT22;12904;50.088;11.414;2023-07-28T11:28:03;21.40;99.90
24814;DHT22;12904;50.088;11.414;2023-07-28T11:30:32;21.20;99.90
24814;DHT22;12904;50.088;11.414;2023-07-28T11:33:01;21.10;99.90
24814;DHT22;12904;50.088;11.414;2023-07-28T11:35:28;21.10;99.90
24814;DHT22;12904;50.088;11.414;2023-07-28T11:37:54;21.20;99.90
24814;DHT22;12904;50.088;11.414;2023-07-28T11:40:22;21.20;99.90
24814;DHT22;12904;50.088;11.414;2023-07-28T11:42:55;21.40;99.90
24814;DHT22;12904;50.088;11.414;2023-07-28T11:45:22;21.70;99.90
24814;DHT22;12904;50.088;11.414;2023-07-28T11:48:07;22.00;99.90
24814;DHT22;12904;50.088;11.414;2023-07-28T11:50:41;22.20;99.90
24814;DHT22;12904;50.088;11.414;2023-07-28T11:53:09;22.30;99.90
24814;DHT22;12904;50.088;11.414;2023-07-28T11:55:35;22.50;99.90
24814;DHT22;12904;50.088;11.414;2023-07-28T11:58:02;22.50;99.90
24814;DHT22;12904;50.088;11.414;2023-07-28T12:00:34;22.50;99.90
24814;DHT22;12904;50.088;11.414;2023-07-28T12:03:01;22.80;99.90
24814;DHT22;12904;50.088;11.414;2023-07-28T12:05:27;23.20;99.90
24814;DHT22;12904;50.088;11.414;2023-07-28T12:07:53;23.30;99.90
24814;DHT22;12904;50.088;11.414;2023-07-28T12:10:19;23.30;99.90
24814;DHT22;12904;50.088;11.414;2023-07-28T12:12:46;23.40;99.90
24814;DHT22;12904;50.088;11.414;2023-07-28T12:15:28;23.50;99.90
24814;DHT22;12904;50.088;11.414;2023-07-28T12:20:53;23.70;99.90
24814;DHT22;12904;50.088;11.414;2023-07-28T12:23:20;23.60;99.90
24814;DHT22;12904;50.088;11.414;2023-07-28T12:25:48;23.60;99.90
24814;DHT22;12904;50.088;11.414;2023-07-28T12:28:14;23.60;99.90
24814;DHT22;12904;50.088;11.414;2023-07-28T12:30:40;23.50;99.90
24814;DHT22;12904;50.088;11.414;2023-07-28T12:33:06;23.50;99.90
24814;DHT22;12904;50.088;11.414;2023-07-28T12:35:33;23.50;99.90
24814;DHT22;12904;50.088;11.414;2023-07-28T12:38:04;23.40;99.90
24814;DHT22;12904;50.088;11.414;2023-07-28T12:40:31;23.40;99.90
24814;DHT22;12904;50.088;11.414;2023-07-28T12:42:57;23.40;99.90
24814;DHT22;12904;50.088;11.414;2023-07-28T12:45:23;23.40;99.90
24814;DHT22;12904;50.088;11.414;2023-07-28T12:47:54;23.50;99.90
24814;DHT22;12904;50.088;11.414;2023-07-28T12:50:21;23.50;99.90
24814;DHT22;12904;50.088;11.414;2023-07-28T12:52:48;23.40;99.90
24814;DHT22;12904;50.088;11.414;2023-07-28T12:55:14;23.40;99.90
24814;DHT22;12904;50.088;11.414;2023-07-28T12:57:40;23.70;99.90
24814;DHT22;12904;50.088;11.414;2023-07-28T13:00:07;23.90;99.90
24814;DHT22;12904;50.088;11.414;2023-07-28T13:02:39;24.10;99.90
24814;DHT22;12904;50.088;11.414;2023-07-28T13:05:06;24.20;99.90
24814;DHT22;12904;50.088;11.414;2023-07-28T13:07:32;24.30;99.90
24814;DHT22;12904;50.088;11.414;2023-07-28T13:09:58;24.20;99.90
24814;DHT22;12904;50.088;11.414;2023-07-28T13:12:23;24.00;99.90
24814;DHT22;12904;50.088;11.414;2023-07-28T13:14:49;23.70;99.90
24814;DHT22;12904;50.088;11.414;2023-07-28T13:17:15;23.70;99.90
24814;DHT22;12904;50.088;11.414;2023-07-28T13:19:42;23.90;99.90
24814;DHT22;12904;50.088;11.414;2023-07-28T13:22:07;24.00;99.90
24814;DHT22;12904;50.088;11.414;2023-07-28T13:24:33;24.10;99.90
24814;DHT22;12904;50.088;11.414;2023-07-28T13:26:58;24.30;99.90
24814;DHT22;12904;50.088;11.414;2023-07-28T13:29:24;24.40;99.90
24814;DHT22;12904;50.088;11.414;2023-07-28T13:31:49;24.40;99.90
24814;DHT22;12904;50.088;11.414;2023-07-28T13:34:15;24.50;99.90
24814;DHT22;12904;50.088;11.414;2023-07-28T13:36:41;24.60;99.90
24814;DHT22;12904;50.088;11.414;2023-07-28T13:39:08;24.60;99.90
24814;DHT22;12904;50.088;11.414;2023-07-28T13:41:34;24.50;99.90
24814;DHT22;12904;50.088;11.414;2023-07-28T13:44:00;24.50;99.90
24814;DHT22;12904;50.088;11.414;2023-07-28T13:46:25;24.50;99.90
24814;DHT22;12904;50.088;11.414;2023-07-28T13:48:51;24.60;99.90
24814;DHT22;12904;50.088;11.414;2023-07-28T13:51:17;24.50;99.90
24814;DHT22;12904;50.088;11.414;2023-07-28T13:53:42;24.40;99.90
24814;DHT22;12904;50.088;11.414;2023-07-28T13:56:08;24.40;99.90
24814;DHT22;12904;50.088;11.414;2023-07-28T13:58:34;24.40;99.90
24814;DHT22;12904;50.088;11.414;2023-07-28T14:00:59;24.50;99.90
24814;DHT22;12904;50.088;11.414;2023-07-28T14:03:25;24.50;99.90
24814;DHT22;12904;50.088;11.414;2023-07-28T14:05:50;24.40;99.90
24814;DHT22;12904;50.088;11.414;2023-07-28T14:08:16;24.30;99.90
24814;DHT22;12904;50.088;11.414;2023-07-28T14:10:45;24.30;99.90
24814;DHT22;12904;50.088;11.414;2023-07-28T14:13:12;24.30;99.90
24814;DHT22;12904;50.088;11.414;2023-07-28T14:15:38;24.30;99.90
24814;DHT22;12904;50.088;11.414;2023-07-28T14:18:03;24.20;99.90
24814;DHT22;12904;50.088;11.414;2023-07-28T14:20:29;24.40;99.90
24814;DHT22;12904;50.088;11.414;2023-07-28T14:22:55;24.70;99.90
24814;DHT22;12904;50.088;11.414;2023-07-28T14:25:20;24.80;99.90
24814;DHT22;12904;50.088;11.414;2023-07-28T14:27:46;25.00;99.90
24814;DHT22;12904;50.088;11.414;2023-07-28T14:30:12;25.10;99.90
24814;DHT22;12904;50.088;11.414;2023-07-28T14:32:38;24.80;99.90
24814;DHT22;12904;50.088;11.414;2023-07-28T14:35:04;24.60;99.90
24814;DHT22;12904;50.088;11.414;2023-07-28T14:37:29;24.60;99.90
24814;DHT22;12904;50.088;11.414;2023-07-28T14:39:55;24.80;99.90
24814;DHT22;12904;50.088;11.414;2023-07-28T14:42:21;25.30;99.90
24814;DHT22;12904;50.088;11.414;2023-07-28T14:44:46;25.60;99.90
24814;DHT22;12904;50.088;11.414;2023-07-28T14:47:12;25.90;99.90
24814;DHT22;12904;50.088;11.414;2023-07-28T14:49:37;25.90;99.90
24814;DHT22;12904;50.088;11.414;2023-07-28T14:52:03;25.70;99.90
24814;DHT22;12904;50.088;11.414;2023-07-28T14:54:29;25.70;99.90
24814;DHT22;12904;50.088;11.414;2023-07-28T14:56:54;25.70;99.90
24814;DHT22;12904;50.088;11.414;2023-07-28T14:59:20;25.80;99.90
24814;DHT22;12904;50.088;11.414;2023-07-28T15:01:45;25.80;99.90
24814;DHT22;12904;50.088;11.414;2023-07-28T15:04:12;25.80;99.90
24814;DHT22;12904;50.088;11.414;2023-07-28T15:06:39;25.50;99.90
24814;DHT22;12904;50.088;11.414;2023-07-28T15:09:05;25.20;99.90
24814;DHT22;12904;50.088;11.414;2023-07-28T15:11:31;25.10;99.90
24814;DHT22;12904;50.088;11.414;2023-07-28T15:13:57;24.90;99.90
24814;DHT22;12904;50.088;11.414;2023-07-28T15:16:22;24.70;99.90
24814;DHT22;12904;50.088;11.414;2023-07-28T15:18:48;24.50;99.90